sensor_id;sensor_type;location;lat;lon;timestamp;pressure;altitude;pressure_sealevel;temperature;humidity
36664;BME280;53333;51.976;20.144;2023-02-07T00:01:19;102633.88;;;-3.96;62.84
36664;BME280;53333;51.976;20.144;2023-02-07T00:03:54;102624.63;;;-3.90;62.82
36664;BME280;53333;51.976;20.144;2023-02-07T00:06:29;102617.81;;;-3.86;62.78
36664;BME280;53333;51.976;20.144;2023-02-07T00:09:06;102612.91;;;-3.80;62.74
36664;BME280;53333;51.976;20.144;2023-02-07T00:11:42;102623.66;;;-3.74;62.78
36664;BME280;53333;51.976;20.144;2023-02-07T00:14:16;102618.59;;;-3.71;62.56
36664;BME280;53333;51.976;20.144;2023-02-07T00:16:49;102606.47;;;-3.69;62.50
36664;BME280;53333;51.976;20.144;2023-02-07T00:19:23;102599.56;;;-3.68;62.38
36664;BME280;53333;51.976;20.144;2023-02-07T00:21:57;102595.91;;;-3.72;62.57
36664;BME280;53333;51.976;20.144;2023-02-07T00:24:30;102588.00;;;-3.73;62.60
36664;BME280;53333;51.976;20.144;2023-02-07T00:27:04;102584.41;;;-3.75;62.59
36664;BME280;53333;51.976;20.144;2023-02-07T00:29:38;102585.31;;;-3.75;62.69
36664;BME280;53333;51.976;20.144;2023-02-07T00:32:11;102568.78;;;-3.74;62.80
36664;BME280;53333;51.976;20.144;2023-02-07T00:34:46;102561.56;;;-3.61;62.31
36664;BME280;53333;51.976;20.144;2023-02-07T00:37:21;102552.47;;;-3.70;62.42
36664;BME280;53333;51.976;20.144;2023-02-07T00:39:55;102562.13;;;-3.67;62.38
36664;BME280;53333;51.976;20.144;2023-02-07T00:42:28;102553.50;;;-3.66;62.74
36664;BME280;53333;51.976;20.144;2023-02-07T00:45:01;102557.91;;;-3.65;62.80
36664;BME280;53333;51.976;20.144;2023-02-07T00:47:35;102554.66;;;-3.59;62.88
36664;BME280;53333;51.976;20.144;2023-02-07T00:50:09;102563.75;;;-3.51;62.71
36664;BME280;53333;51.976;20.144;2023-02-07T00:52:43;102578.03;;;-3.44;62.96
36664;BME280;53333;51.976;20.144;2023-02-07T00:55:19;102574.88;;;-3.37;62.82
36664;BME280;53333;51.976;20.144;2023-02-07T00:57:53;102578.81;;;-3.28;62.96
36664;BME280;53333;51.976;20.144;2023-02-07T01:00:26;102581.72;;;-3.21;62.89
36664;BME280;53333;51.976;20.144;2023-02-07T01:02:59;102572.34;;;-3.16;62.82
36664;BME280;53333;51.976;20.144;2023-02-07T01:05:34;102578.72;;;-3.11;62.87
36664;BME280;53333;51.976;20.144;2023-02-07T01:08:08;102573.53;;;-3.10;62.91
36664;BME280;53333;51.976;20.144;2023-02-07T01:10:43;102569.28;;;-3.07;63.05
36664;BME280;53333;51.976;20.144;2023-02-07T01:13:17;102562.47;;;-3.04;63.07
36664;BME280;53333;51.976;20.144;2023-02-07T01:15:50;102559.16;;;-3.00;63.11
36664;BME280;53333;51.976;20.144;2023-02-07T01:18:23;102554.97;;;-2.96;62.91
36664;BME280;53333;51.976;20.144;2023-02-07T01:20:58;102542.75;;;-2.96;63.03
36664;BME280;53333;51.976;20.144;2023-02-07T01:23:32;102548.06;;;-2.94;63.27
36664;BME280;53333;51.976;20.144;2023-02-07T01:26:05;102545.53;;;-2.93;63.35
36664;BME280;53333;51.976;20.144;2023-02-07T01:28:38;102549.94;;;-2.92;63.30
36664;BME280;53333;51.976;20.144;2023-02-07T01:31:12;102548.28;;;-2.89;63.12
36664;BME280;53333;51.976;20.144;2023-02-07T01:33:46;102550.97;;;-2.88;63.35
36664;BME280;53333;51.976;20.144;2023-02-07T01:36:21;102558.88;;;-2.86;63.31
36664;BME280;53333;51.976;20.144;2023-02-07T01:38:55;102561.56;;;-2.85;63.44
36664;BME280;53333;51.976;20.144;2023-02-07T01:41:29;102565.13;;;-2.83;63.38
36664;BME280;53333;51.976;20.144;2023-02-07T01:44:05;102556.47;;;-2.82;63.50
36664;BME280;53333;51.976;20.144;2023-02-07T01:46:40;102571.34;;;-2.81;63.48
36664;BME280;53333;51.976;20.144;2023-02-07T01:49:16;102566.19;;;-2.79;63.46
36664;BME280;53333;51.976;20.144;2023-02-07T01:51:53;102555.72;;;-2.79;63.52
36664;BME280;53333;51.976;20.144;2023-02-07T01:54:31;102551.50;;;-2.76;63.52
36664;BME280;53333;51.976;20.144;2023-02-07T01:57:07;102552.41;;;-2.75;63.59
36664;BME280;53333;51.976;20.144;2023-02-07T01:59:43;102555.16;;;-2.72;63.53
36664;BME280;53333;51.976;20.144;2023-02-07T02:02:19;102554.25;;;-2.72;63.79
36664;BME280;53333;51.976;20.144;2023-02-07T02:04:55;102553.56;;;-2.68;63.62
36664;BME280;53333;51.976;20.144;2023-02-07T02:07:31;102538.75;;;-2.68;63.87
36664;BME280;53333;51.976;20.144;2023-02-07T02:10:08;102549.22;;;-2.68;63.84
36664;BME280;53333;51.976;20.144;2023-02-07T02:12:59;102542.41;;;-2.64;63.88
36664;BME280;53333;51.976;20.144;2023-02-07T02:15:42;102551.13;;;-2.64;63.92
36664;BME280;53333;51.976;20.144;2023-02-07T02:21:48;102561.81;;;-2.59;63.78
36664;BME280;53333;51.976;20.144;2023-02-07T02:24:56;102564.50;;;-2.58;63.97
36664;BME280;53333;51.976;20.144;2023-02-07T02:27:52;102566.44;;;-2.53;63.77
36664;BME280;53333;51.976;20.144;2023-02-07T02:33:41;102548.34;;;-2.47;63.79
36664;BME280;53333;51.976;20.144;2023-02-07T02:36:21;102558.78;;;-2.49;63.83
36664;BME280;53333;51.976;20.144;2023-02-07T02:39:02;102561.31;;;-2.50;63.94
36664;BME280;53333;51.976;20.144;2023-02-07T02:41:46;102552.63;;;-2.49;64.16
36664;BME280;53333;51.976;20.144;2023-02-07T02:44:27;102560.53;;;-2.48;63.93
36664;BME280;53333;51.976;20.144;2023-02-07T02:47:04;102568.47;;;-2.46;64.01
36664;BME280;53333;51.976;20.144;2023-02-07T02:49:39;102569.13;;;-2.31;63.47
36664;BME280;53333;51.976;20.144;2023-02-07T02:52:12;102568.72;;;-2.40;63.53
36664;BME280;53333;51.976;20.144;2023-02-07T02:54:46;102567.91;;;-2.39;63.82
36664;BME280;53333;51.976;20.144;2023-02-07T02:57:54;102562.03;;;-2.33;63.82
36664;BME280;53333;51.976;20.144;2023-02-07T03:00:49;102555.13;;;-2.31;63.83
36664;BME280;53333;51.976;20.144;2023-02-07T03:03:46;102557.06;;;-2.27;63.83
36664;BME280;53333;51.976;20.144;2023-02-07T03:06:35;102556.09;;;-2.29;64.13
36664;BME280;53333;51.976;20.144;2023-02-07T03:09:18;102562.22;;;-2.29;63.89
36664;BME280;53333;51.976;20.144;2023-02-07T03:11:59;102565.72;;;-2.28;64.13
36664;BME280;53333;51.976;20.144;2023-02-07T03:14:47;102581.63;;;-2.24;64.14
36664;BME280;53333;51.976;20.144;2023-02-07T03:17:27;102577.31;;;-2.23;64.12
36664;BME280;53333;51.976;20.144;2023-02-07T03:20:05;102568.66;;;-2.21;64.19
36664;BME280;53333;51.976;20.144;2023-02-07T03:22:43;102571.41;;;-2.17;64.17
36664;BME280;53333;51.976;20.144;2023-02-07T03:25:18;102567.97;;;-2.16;64.27
36664;BME280;53333;51.976;20.144;2023-02-07T03:27:53;102563.63;;;-2.16;64.32
36664;BME280;53333;51.976;20.144;2023-02-07T03:30:30;102566.31;;;-2.14;64.38
36664;BME280;53333;51.976;20.144;2023-02-07T03:33:06;102557.56;;;-2.15;64.30
36664;BME280;53333;51.976;20.144;2023-02-07T03:35:47;102551.53;;;-2.12;64.42
36664;BME280;53333;51.976;20.144;2023-02-07T03:38:23;102550.66;;;-2.13;64.54
36664;BME280;53333;51.976;20.144;2023-02-07T03:40:58;102561.19;;;-2.11;64.59
36664;BME280;53333;51.976;20.144;2023-02-07T03:43:34;102553.41;;;-2.10;64.37
36664;BME280;53333;51.976;20.144;2023-02-07T03:46:08;102551.75;;;-2.08;64.48
36664;BME280;53333;51.976;20.144;2023-02-07T03:48:42;102555.28;;;-2.07;64.42
36664;BME280;53333;51.976;20.144;2023-02-07T03:51:15;102556.97;;;-2.08;64.49
36664;BME280;53333;51.976;20.144;2023-02-07T03:53:49;102563.94;;;-2.08;64.61
36664;BME280;53333;51.976;20.144;2023-02-07T03:56:22;102556.97;;;-2.08;64.62
36664;BME280;53333;51.976;20.144;2023-02-07T03:58:55;102557.03;;;-2.06;64.67
36664;BME280;53333;51.976;20.144;2023-02-07T04:01:28;102562.22;;;-2.08;64.75
36664;BME280;53333;51.976;20.144;2023-02-07T04:04:02;102568.38;;;-2.07;64.75
36664;BME280;53333;51.976;20.144;2023-02-07T04:06:35;102572.75;;;-2.06;64.64
36664;BME280;53333;51.976;20.144;2023-02-07T04:09:09;102566.63;;;-2.07;64.77
36664;BME280;53333;51.976;20.144;2023-02-07T04:11:42;102560.56;;;-2.06;64.76
36664;BME280;53333;51.976;20.144;2023-02-07T04:14:16;102558.84;;;-2.05;64.84
36664;BME280;53333;51.976;20.144;2023-02-07T04:16:50;102551.88;;;-2.05;64.90
36664;BME280;53333;51.976;20.144;2023-02-07T04:19:23;102545.81;;;-2.04;64.80
36664;BME280;53333;51.976;20.144;2023-02-07T04:21:56;102540.56;;;-2.04;64.89
36664;BME280;53333;51.976;20.144;2023-02-07T04:24:30;102551.03;;;-2.04;65.03
36664;BME280;53333;51.976;20.144;2023-02-07T04:27:04;102558.91;;;-2.04;64.85
36664;BME280;53333;51.976;20.144;2023-02-07T04:29:37;102551.94;;;-2.03;64.76
36664;BME280;53333;51.976;20.144;2023-02-07T04:32:10;102551.94;;;-2.03;64.86
36664;BME280;53333;51.976;20.144;2023-02-07T04:34:43;102549.31;;;-2.03;65.03
36664;BME280;53333;51.976;20.144;2023-02-07T04:37:16;102548.44;;;-2.04;64.90
36664;BME280;53333;51.976;20.144;2023-02-07T04:39:50;102559.78;;;-2.03;65.03
36664;BME280;53333;51.976;20.144;2023-02-07T04:42:23;102555.47;;;-2.03;65.13
36664;BME280;53333;51.976;20.144;2023-02-07T04:44:56;102555.47;;;-2.03;65.09
36664;BME280;53333;51.976;20.144;2023-02-07T04:47:29;102551.13;;;-2.02;65.18
36664;BME280;53333;51.976;20.144;2023-02-07T04:50:02;102559.91;;;-2.00;65.13
36664;BME280;53333;51.976;20.144;2023-02-07T04:52:36;102558.25;;;-1.98;64.96
36664;BME280;53333;51.976;20.144;2023-02-07T04:55:12;102558.19;;;-1.99;65.03
36664;BME280;53333;51.976;20.144;2023-02-07T04:57:49;102549.50;;;-1.98;65.15
36664;BME280;53333;51.976;20.144;2023-02-07T05:00:22;102549.56;;;-1.97;65.22
36664;BME280;53333;51.976;20.144;2023-02-07T05:02:55;102548.69;;;-1.97;65.11
36664;BME280;53333;51.976;20.144;2023-02-07T05:05:31;102551.38;;;-1.96;65.12
36664;BME280;53333;51.976;20.144;2023-02-07T05:08:04;102553.19;;;-1.93;64.99
36664;BME280;53333;51.976;20.144;2023-02-07T05:10:39;102557.69;;;-1.91;65.26
36664;BME280;53333;51.976;20.144;2023-02-07T05:13:12;102558.56;;;-1.90;65.16
36664;BME280;53333;51.976;20.144;2023-02-07T05:15:45;102562.09;;;-1.90;65.25
36664;BME280;53333;51.976;20.144;2023-02-07T05:18:18;102555.13;;;-1.89;65.11
36664;BME280;53333;51.976;20.144;2023-02-07T05:20:52;102551.69;;;-1.88;65.31
36664;BME280;53333;51.976;20.144;2023-02-07T05:23:25;102548.22;;;-1.87;65.28
36664;BME280;53333;51.976;20.144;2023-02-07T05:25:59;102549.13;;;-1.87;65.20
36664;BME280;53333;51.976;20.144;2023-02-07T05:28:32;102552.69;;;-1.85;65.23
36664;BME280;53333;51.976;20.144;2023-02-07T05:31:05;102554.47;;;-1.84;65.18
36664;BME280;53333;51.976;20.144;2023-02-07T05:33:38;102554.47;;;-1.84;65.25
36664;BME280;53333;51.976;20.144;2023-02-07T05:36:10;102551.84;;;-1.84;65.35
36664;BME280;53333;51.976;20.144;2023-02-07T05:38:43;102555.38;;;-1.83;65.32
36664;BME280;53333;51.976;20.144;2023-02-07T05:41:18;102556.25;;;-1.83;65.41
36664;BME280;53333;51.976;20.144;2023-02-07T05:43:51;102553.63;;;-1.83;65.42
36664;BME280;53333;51.976;20.144;2023-02-07T05:46:24;102558.94;;;-1.81;65.39
36664;BME280;53333;51.976;20.144;2023-02-07T05:48:57;102556.38;;;-1.79;65.58
36664;BME280;53333;51.976;20.144;2023-02-07T05:51:30;102570.44;;;-1.77;65.60
36664;BME280;53333;51.976;20.144;2023-02-07T05:54:05;102570.44;;;-1.77;65.60
36664;BME280;53333;51.976;20.144;2023-02-07T05:56:39;102565.19;;;-1.77;65.59
36664;BME280;53333;51.976;20.144;2023-02-07T05:59:12;102567.56;;;-1.84;65.56
36664;BME280;53333;51.976;20.144;2023-02-07T06:01:45;102574.34;;;-1.89;65.65
36664;BME280;53333;51.976;20.144;2023-02-07T06:04:18;102570.59;;;-1.95;65.74
36664;BME280;53333;51.976;20.144;2023-02-07T06:06:51;102567.66;;;-2.03;65.76
36664;BME280;53333;51.976;20.144;2023-02-07T06:09:24;102575.25;;;-2.09;65.94
36664;BME280;53333;51.976;20.144;2023-02-07T06:11:59;102577.75;;;-2.12;66.15
36664;BME280;53333;51.976;20.144;2023-02-07T06:14:35;102585.59;;;-2.12;66.32
36664;BME280;53333;51.976;20.144;2023-02-07T06:17:08;102581.28;;;-2.12;66.14
36664;BME280;53333;51.976;20.144;2023-02-07T06:19:41;102580.34;;;-2.12;66.23
36664;BME280;53333;51.976;20.144;2023-02-07T06:22:15;102579.53;;;-2.11;66.35
36664;BME280;53333;51.976;20.144;2023-02-07T06:24:48;102584.09;;;-2.07;66.30
36664;BME280;53333;51.976;20.144;2023-02-07T06:27:23;102579.53;;;-1.90;65.78
36664;BME280;53333;51.976;20.144;2023-02-07T06:29:56;102588.09;;;-1.94;65.87
36664;BME280;53333;51.976;20.144;2023-02-07T06:32:29;102585.63;;;-1.91;66.13
36664;BME280;53333;51.976;20.144;2023-02-07T06:35:05;102579.72;;;-1.86;66.08
36664;BME280;53333;51.976;20.144;2023-02-07T06:37:38;102573.59;;;-1.86;66.10
36664;BME280;53333;51.976;20.144;2023-02-07T06:40:12;102566.53;;;-1.87;66.28
36664;BME280;53333;51.976;20.144;2023-02-07T06:42:46;102562.16;;;-1.88;66.32
36664;BME280;53333;51.976;20.144;2023-02-07T06:45:19;102559.59;;;-1.87;66.31
36664;BME280;53333;51.976;20.144;2023-02-07T06:47:52;102561.56;;;-1.81;66.60
36664;BME280;53333;51.976;20.144;2023-02-07T06:50:26;102563.47;;;-1.77;66.37
36664;BME280;53333;51.976;20.144;2023-02-07T06:52:59;102564.63;;;-1.70;66.34
36664;BME280;53333;51.976;20.144;2023-02-07T06:55:35;102571.88;;;-1.63;66.58
36664;BME280;53333;51.976;20.144;2023-02-07T06:58:10;102581.72;;;-1.57;66.52
36664;BME280;53333;51.976;20.144;2023-02-07T07:00:43;102583.69;;;-1.52;66.32
36664;BME280;53333;51.976;20.144;2023-02-07T07:03:18;102583.03;;;-1.46;66.43
36664;BME280;53333;51.976;20.144;2023-02-07T07:05:53;102584.97;;;-1.42;66.53
36664;BME280;53333;51.976;20.144;2023-02-07T07:08:30;102591.22;;;-1.38;66.43
36664;BME280;53333;51.976;20.144;2023-02-07T07:11:04;102596.63;;;-1.34;66.36
36664;BME280;53333;51.976;20.144;2023-02-07T07:13:39;102595.84;;;-1.31;66.46
36664;BME280;53333;51.976;20.144;2023-02-07T07:16:12;102599.50;;;-1.27;66.34
36664;BME280;53333;51.976;20.144;2023-02-07T07:18:45;102599.63;;;-1.24;66.50
36664;BME280;53333;51.976;20.144;2023-02-07T07:21:18;102593.63;;;-1.20;66.20
36664;BME280;53333;51.976;20.144;2023-02-07T07:23:51;102590.25;;;-1.18;66.34
36664;BME280;53333;51.976;20.144;2023-02-07T07:26:24;102590.25;;;-1.18;66.43
36664;BME280;53333;51.976;20.144;2023-02-07T07:29:11;102582.38;;;-1.18;66.36
36664;BME280;53333;51.976;20.144;2023-02-07T07:31:45;102587.88;;;-1.12;66.32
36664;BME280;53333;51.976;20.144;2023-02-07T07:34:18;102581.47;;;-0.96;65.81
36664;BME280;53333;51.976;20.144;2023-02-07T07:36:52;102580.38;;;-1.01;65.99
36664;BME280;53333;51.976;20.144;2023-02-07T07:39:27;102579.53;;;-1.00;66.03
36664;BME280;53333;51.976;20.144;2023-02-07T07:42:00;102581.41;;;-0.97;66.02
36664;BME280;53333;51.976;20.144;2023-02-07T07:44:53;102582.47;;;-0.92;66.08
36664;BME280;53333;51.976;20.144;2023-02-07T07:47:29;102580.84;;;-0.88;66.25
36664;BME280;53333;51.976;20.144;2023-02-07T07:50:02;102580.19;;;-0.83;66.28
36664;BME280;53333;51.976;20.144;2023-02-07T07:52:35;102579.56;;;-0.76;66.30
36664;BME280;53333;51.976;20.144;2023-02-07T07:55:08;102576.31;;;-0.68;66.23
36664;BME280;53333;51.976;20.144;2023-02-07T07:57:41;102579.16;;;-0.62;66.17
36664;BME280;53333;51.976;20.144;2023-02-07T08:00:16;102580.28;;;-0.56;65.96
36664;BME280;53333;51.976;20.144;2023-02-07T08:02:49;102576.13;;;-0.49;66.00
36664;BME280;53333;51.976;20.144;2023-02-07T08:05:22;102564.09;;;-0.42;65.82
36664;BME280;53333;51.976;20.144;2023-02-07T08:07:56;102573.81;;;-0.40;65.73
36664;BME280;53333;51.976;20.144;2023-02-07T08:10:29;102576.66;;;-0.33;65.76
36664;BME280;53333;51.976;20.144;2023-02-07T08:13:02;102581.16;;;-0.29;65.70
36664;BME280;53333;51.976;20.144;2023-02-07T08:15:37;102580.78;;;-0.16;65.31
36664;BME280;53333;51.976;20.144;2023-02-07T08:18:10;102590.97;;;-0.25;65.30
36664;BME280;53333;51.976;20.144;2023-02-07T08:20:43;102593.53;;;-0.27;65.42
36664;BME280;53333;51.976;20.144;2023-02-07T08:23:16;102590.97;;;-0.25;65.50
36664;BME280;53333;51.976;20.144;2023-02-07T08:25:49;102591.06;;;-0.22;65.64
36664;BME280;53333;51.976;20.144;2023-02-07T08:28:23;102603.41;;;-0.20;65.65
36664;BME280;53333;51.976;20.144;2023-02-07T08:31:00;102599.22;;;-0.13;65.50
36664;BME280;53333;51.976;20.144;2023-02-07T08:33:36;102587.00;;;-0.12;65.56
36664;BME280;53333;51.976;20.144;2023-02-07T08:36:09;102593.16;;;-0.12;65.57
36664;BME280;53333;51.976;20.144;2023-02-07T08:38:48;102607.16;;;-0.11;65.54
36664;BME280;53333;51.976;20.144;2023-02-07T08:41:22;102602.84;;;-0.11;65.52
36664;BME280;53333;51.976;20.144;2023-02-07T08:43:55;102598.50;;;-0.09;65.32
36664;BME280;53333;51.976;20.144;2023-02-07T08:46:30;102601.19;;;-0.07;65.38
36664;BME280;53333;51.976;20.144;2023-02-07T08:49:03;102596.88;;;-0.05;65.38
36664;BME280;53333;51.976;20.144;2023-02-07T08:51:37;102604.91;;;-0.01;65.50
36664;BME280;53333;51.976;20.144;2023-02-07T08:54:10;102603.44;;;0.08;65.24
36664;BME280;53333;51.976;20.144;2023-02-07T08:56:43;102598.38;;;0.14;65.18
36664;BME280;53333;51.976;20.144;2023-02-07T08:59:16;102593.38;;;0.22;65.13
36664;BME280;53333;51.976;20.144;2023-02-07T09:01:51;102602.31;;;0.27;64.97
36664;BME280;53333;51.976;20.144;2023-02-07T09:04:24;102596.47;;;0.35;65.10
36664;BME280;53333;51.976;20.144;2023-02-07T09:06:57;102602.84;;;0.44;65.03
36664;BME280;53333;51.976;20.144;2023-02-07T09:09:31;102615.34;;;0.51;64.94
36664;BME280;53333;51.976;20.144;2023-02-07T09:12:04;102616.94;;;0.75;64.35
36664;BME280;53333;51.976;20.144;2023-02-07T09:14:38;102618.66;;;0.72;64.11
36664;BME280;53333;51.976;20.144;2023-02-07T09:17:13;102611.75;;;0.76;64.23
36664;BME280;53333;51.976;20.144;2023-02-07T09:19:46;102612.81;;;0.83;64.07
36664;BME280;53333;51.976;20.144;2023-02-07T09:22:19;102614.84;;;0.92;64.00
36664;BME280;53333;51.976;20.144;2023-02-07T09:24:52;102615.03;;;0.98;64.05
36664;BME280;53333;51.976;20.144;2023-02-07T09:27:25;102609.97;;;1.04;63.81
36664;BME280;53333;51.976;20.144;2023-02-07T09:29:58;102611.06;;;1.12;63.78
36664;BME280;53333;51.976;20.144;2023-02-07T09:32:32;102613.88;;;1.18;63.56
36664;BME280;53333;51.976;20.144;2023-02-07T09:35:06;102610.50;;;1.24;63.55
36664;BME280;53333;51.976;20.144;2023-02-07T09:37:39;102601.88;;;1.28;63.46
36664;BME280;53333;51.976;20.144;2023-02-07T09:40:21;102608.25;;;1.36;63.21
36664;BME280;53333;51.976;20.144;2023-02-07T09:42:55;102617.16;;;1.41;63.07
36664;BME280;53333;51.976;20.144;2023-02-07T09:45:34;102621.66;;;1.45;62.98
36664;BME280;53333;51.976;20.144;2023-02-07T09:48:15;102618.16;;;1.47;63.13
36664;BME280;53333;51.976;20.144;2023-02-07T09:50:53;102619.22;;;1.52;62.93
36664;BME280;53333;51.976;20.144;2023-02-07T09:53:33;102616.72;;;1.58;62.60
36664;BME280;53333;51.976;20.144;2023-02-07T09:56:14;102614.22;;;1.62;62.75
36664;BME280;53333;51.976;20.144;2023-02-07T09:58:54;102607.31;;;1.66;62.48
36664;BME280;53333;51.976;20.144;2023-02-07T10:01:33;102603.88;;;1.70;62.44
36664;BME280;53333;51.976;20.144;2023-02-07T10:04:28;102604.94;;;1.77;62.52
36664;BME280;53333;51.976;20.144;2023-02-07T10:07:05;102600.63;;;1.79;62.33
36664;BME280;53333;51.976;20.144;2023-02-07T10:09:42;102606.88;;;1.84;62.12
36664;BME280;53333;51.976;20.144;2023-02-07T10:13:04;102599.19;;;1.92;62.06
36664;BME280;53333;51.976;20.144;2023-02-07T10:15:50;102590.25;;;1.87;61.90
36664;BME280;53333;51.976;20.144;2023-02-07T10:18:37;102592.13;;;1.91;61.89
36664;BME280;53333;51.976;20.144;2023-02-07T10:21:19;102589.53;;;1.92;61.79
36664;BME280;53333;51.976;20.144;2023-02-07T10:24:07;102583.53;;;1.98;61.69
36664;BME280;53333;51.976;20.144;2023-02-07T10:26:51;102578.28;;;1.99;61.42
36664;BME280;53333;51.976;20.144;2023-02-07T10:29:38;102575.78;;;2.06;61.52
36664;BME280;53333;51.976;20.144;2023-02-07T10:32:20;102569.66;;;2.07;61.52
36664;BME280;53333;51.976;20.144;2023-02-07T10:34:55;102568.81;;;2.08;61.37
36664;BME280;53333;51.976;20.144;2023-02-07T10:37:36;102562.69;;;2.09;61.42
36664;BME280;53333;51.976;20.144;2023-02-07T10:40:14;102565.34;;;2.10;61.21
36664;BME280;53333;51.976;20.144;2023-02-07T10:42:52;102567.25;;;2.16;61.30
36664;BME280;53333;51.976;20.144;2023-02-07T10:45:28;102569.06;;;2.18;61.23
36664;BME280;53333;51.976;20.144;2023-02-07T10:48:03;102574.44;;;2.23;60.91
36664;BME280;53333;51.976;20.144;2023-02-07T10:50:40;102562.28;;;2.28;60.82
36664;BME280;53333;51.976;20.144;2023-02-07T10:53:15;102575.03;;;2.48;60.75
36664;BME280;53333;51.976;20.144;2023-02-07T10:56:26;102575.81;;;2.44;60.49
36664;BME280;53333;51.976;20.144;2023-02-07T10:58:59;102575.81;;;2.44;60.37
36664;BME280;53333;51.976;20.144;2023-02-07T11:01:33;102573.31;;;2.50;60.27
36664;BME280;53333;51.976;20.144;2023-02-07T11:04:21;102568.25;;;2.59;60.21
36664;BME280;53333;51.976;20.144;2023-02-07T11:06:59;102571.78;;;2.60;60.11
36664;BME280;53333;51.976;20.144;2023-02-07T11:09:34;102564.81;;;2.62;60.08
36664;BME280;53333;51.976;20.144;2023-02-07T11:12:13;102566.66;;;2.67;60.01
36664;BME280;53333;51.976;20.144;2023-02-07T11:14:59;102562.34;;;2.71;59.82
36664;BME280;53333;51.976;20.144;2023-02-07T11:17:33;102564.09;;;2.70;59.74
36664;BME280;53333;51.976;20.144;2023-02-07T11:20:16;102574.69;;;2.72;59.71
36664;BME280;53333;51.976;20.144;2023-02-07T11:22:51;102571.31;;;2.79;59.81
36664;BME280;53333;51.976;20.144;2023-02-07T11:25:30;102573.75;;;2.68;59.88
36664;BME280;53333;51.976;20.144;2023-02-07T11:28:04;102579.75;;;2.63;59.86
36664;BME280;53333;51.976;20.144;2023-02-07T11:30:39;102574.41;;;2.60;59.85
36664;BME280;53333;51.976;20.144;2023-02-07T11:33:17;102565.59;;;2.58;59.76
36664;BME280;53333;51.976;20.144;2023-02-07T11:36:02;102569.06;;;2.57;59.81
36664;BME280;53333;51.976;20.144;2023-02-07T11:38:36;102566.47;;;2.58;59.83
36664;BME280;53333;51.976;20.144;2023-02-07T11:41:19;102567.13;;;2.48;59.86
36664;BME280;53333;51.976;20.144;2023-02-07T11:44:00;102559.09;;;2.43;59.73
36664;BME280;53333;51.976;20.144;2023-02-07T11:46:35;102553.75;;;2.40;59.87
36664;BME280;53333;51.976;20.144;2023-02-07T11:49:20;102558.19;;;2.41;59.80
36664;BME280;53333;51.976;20.144;2023-02-07T11:51:57;102559.81;;;2.36;59.80
36664;BME280;53333;51.976;20.144;2023-02-07T11:54:31;102561.59;;;2.37;59.85
36664;BME280;53333;51.976;20.144;2023-02-07T11:57:09;102554.59;;;2.39;59.51
36664;BME280;53333;51.976;20.144;2023-02-07T11:59:45;102549.25;;;2.36;59.67
36664;BME280;53333;51.976;20.144;2023-02-07T12:02:23;102551.88;;;2.36;59.68
36664;BME280;53333;51.976;20.144;2023-02-07T12:05:11;102552.91;;;2.41;59.69
36664;BME280;53333;51.976;20.144;2023-02-07T12:07:48;102554.59;;;2.39;59.61
36664;BME280;53333;51.976;20.144;2023-02-07T12:10:26;102553.75;;;2.40;59.63
36664;BME280;53333;51.976;20.144;2023-02-07T12:13:06;102557.38;;;2.45;59.72
36664;BME280;53333;51.976;20.144;2023-02-07T12:15:41;102556.53;;;2.46;59.50
36664;BME280;53333;51.976;20.144;2023-02-07T12:18:23;102562.69;;;2.47;59.43
36664;BME280;53333;51.976;20.144;2023-02-07T12:21:03;102569.81;;;2.49;59.46
36664;BME280;53333;51.976;20.144;2023-02-07T12:23:42;102563.66;;;2.50;59.39
36664;BME280;53333;51.976;20.144;2023-02-07T12:26:21;102564.50;;;2.48;59.45
36664;BME280;53333;51.976;20.144;2023-02-07T12:29:08;102567.16;;;2.49;59.52
36664;BME280;53333;51.976;20.144;2023-02-07T12:31:56;102574.16;;;2.47;59.42
36664;BME280;53333;51.976;20.144;2023-02-07T12:34:35;102567.94;;;2.45;59.46
36664;BME280;53333;51.976;20.144;2023-02-07T12:37:20;102572.38;;;2.46;59.33
36664;BME280;53333;51.976;20.144;2023-02-07T12:40:02;102560.94;;;2.46;59.27
36664;BME280;53333;51.976;20.144;2023-02-07T12:42:38;102553.88;;;2.45;59.38
36664;BME280;53333;51.976;20.144;2023-02-07T12:45:17;102551.22;;;2.45;59.34
36664;BME280;53333;51.976;20.144;2023-02-07T12:48:01;102555.66;;;2.46;59.44
36664;BME280;53333;51.976;20.144;2023-02-07T12:51:07;102558.34;;;2.49;59.40
36664;BME280;53333;51.976;20.144;2023-02-07T12:54:03;102551.31;;;2.49;59.47
36664;BME280;53333;51.976;20.144;2023-02-07T12:56:43;102547.78;;;2.49;59.52
36664;BME280;53333;51.976;20.144;2023-02-07T12:59:24;102549.50;;;2.47;59.40
36664;BME280;53333;51.976;20.144;2023-02-07T13:02:19;102550.41;;;2.47;59.62
36664;BME280;53333;51.976;20.144;2023-02-07T13:05:24;102558.31;;;2.47;59.44
36664;BME280;53333;51.976;20.144;2023-02-07T13:08:06;102546.78;;;2.44;59.54
36664;BME280;53333;51.976;20.144;2023-02-07T13:10:55;102545.03;;;2.43;59.17
36664;BME280;53333;51.976;20.144;2023-02-07T13:13:35;102550.34;;;2.44;59.39
36664;BME280;53333;51.976;20.144;2023-02-07T13:16:18;102539.84;;;2.47;59.38
36664;BME280;53333;51.976;20.144;2023-02-07T13:19:03;102538.13;;;2.49;59.46
36664;BME280;53333;51.976;20.144;2023-02-07T13:21:40;102540.06;;;2.58;59.21
36664;BME280;53333;51.976;20.144;2023-02-07T13:24:18;102536.41;;;2.51;59.27
36664;BME280;53333;51.976;20.144;2023-02-07T13:26:57;102532.06;;;2.53;59.07
36664;BME280;53333;51.976;20.144;2023-02-07T13:29:33;102532.06;;;2.53;59.16
36664;BME280;53333;51.976;20.144;2023-02-07T13:32:10;102530.28;;;2.52;59.18
36664;BME280;53333;51.976;20.144;2023-02-07T13:34:48;102539.09;;;2.53;59.21
36664;BME280;53333;51.976;20.144;2023-02-07T13:37:30;102542.69;;;2.57;59.14
36664;BME280;53333;51.976;20.144;2023-02-07T13:40:20;102548.06;;;2.61;59.04